Time;durP1;ratioP1;P1;durP2;ratioP2;P2;SDS_P1;SDS_P2;PMS_P1;PMS_P2;Temp;Humidity;BMP_temperature;BMP_pressure;BME280_temperature;BME280_humidity;BME280_pressure;Samples;Min_cycle;Max_cycle;Signal;HPM_P1;HPM_P2
2021/12/01 00:00:51;;;;;;;2.00;1.10;;;5.00;99.90;;;;;;5009692;28;20021;-82
2021/12/01 00:03:17;;;;;;;1.77;1.10;;;5.00;99.90;;;;;;5001699;28;20099;-80
2021/12/01 00:05:43;;;;;;;2.00;0.83;;;5.00;99.90;;;;;;5018456;28;20068;-82
2021/12/01 00:08:09;;;;;;;1.63;1.23;;;5.10;99.90;;;;;;5035910;28;20057;-80
2021/12/01 00:10:36;;;;;;;1.77;0.93;;;5.10;99.90;;;;;;5029160;28;20432;-83
2021/12/01 00:13:04;;;;;;;1.73;0.90;;;5.10;99.90;;;;;;5025719;28;20340;-81
2021/12/01 00:15:30;;;;;;;1.63;0.80;;;5.10;99.90;;;;;;5034877;28;20072;-79
2021/12/01 00:17:56;;;;;;;1.77;0.77;;;5.10;99.90;;;;;;5008714;28;20025;-80
2021/12/01 00:20:22;;;;;;;2.90;0.90;;;5.20;99.90;;;;;;5023426;28;20344;-82
2021/12/01 00:22:48;;;;;;;1.10;0.70;;;5.20;99.90;;;;;;5031276;28;20025;-80
2021/12/01 00:25:18;;;;;;;1.10;0.97;;;5.20;99.90;;;;;;5027120;28;20026;-82
2021/12/01 00:27:45;;;;;;;2.70;0.70;;;5.20;99.90;;;;;;5009581;28;20438;-80
2021/12/01 00:30:10;;;;;;;2.03;0.70;;;5.30;99.90;;;;;;5011537;28;20032;-82
2021/12/01 00:32:36;;;;;;;1.93;0.73;;;5.30;99.90;;;;;;5014110;28;20093;-83
2021/12/01 00:35:05;;;;;;;1.40;0.80;;;5.30;99.90;;;;;;5009394;28;20447;-81
2021/12/01 00:37:31;;;;;;;2.00;0.90;;;5.30;99.90;;;;;;5026366;28;20029;-80
2021/12/01 00:39:56;;;;;;;1.83;0.70;;;5.30;99.90;;;;;;5008411;28;20029;-80
2021/12/01 00:42:22;;;;;;;1.00;0.60;;;5.40;99.90;;;;;;5022859;28;20022;-81
2021/12/01 00:44:55;;;;;;;1.60;0.77;;;5.40;99.90;;;;;;5031153;28;20026;-81
2021/12/01 00:47:23;;;;;;;1.53;0.67;;;5.40;99.90;;;;;;4997603;28;20057;-81
2021/12/01 00:49:49;;;;;;;1.00;0.47;;;5.40;99.90;;;;;;5014812;28;20018;-83
2021/12/01 00:52:15;;;;;;;2.00;0.93;;;5.40;99.90;;;;;;4997799;28;20104;-79
2021/12/01 00:54:40;;;;;;;1.53;0.80;;;5.40;99.90;;;;;;4996925;28;20021;-80
2021/12/01 00:57:06;;;;;;;2.20;0.70;;;5.40;99.90;;;;;;5014773;28;20105;-81
2021/12/01 00:59:34;;;;;;;1.27;0.90;;;5.50;99.90;;;;;;5010663;28;20037;-79
2021/12/01 01:01:59;;;;;;;2.30;0.80;;;5.40;99.90;;;;;;5013135;28;20084;-80
2021/12/01 01:04:25;;;;;;;1.20;0.77;;;5.50;99.90;;;;;;4996778;28;20018;-79
2021/12/01 01:06:51;;;;;;;0.73;0.67;;;5.50;99.90;;;;;;5014642;28;20447;-81
2021/12/01 01:09:17;;;;;;;2.73;0.90;;;5.50;99.90;;;;;;4997146;28;20442;-83
2021/12/01 01:17:18;;;;;;;2.10;0.90;;;5.40;99.90;;;;;;5006112;28;20093;-80
2021/12/01 01:19:43;;;;;;;2.33;0.85;;;5.40;99.90;;;;;;5014719;28;20022;-81
2021/12/01 01:22:09;;;;;;;2.37;0.90;;;5.40;99.90;;;;;;4997229;28;20028;-83
2021/12/01 01:24:35;;;;;;;4.80;1.20;;;5.40;99.90;;;;;;4996641;28;20017;-81
2021/12/01 01:27:01;;;;;;;2.03;1.00;;;5.40;99.90;;;;;;4996724;28;20014;-80
2021/12/01 01:29:27;;;;;;;2.70;1.10;;;5.40;99.90;;;;;;4993197;28;20030;-86
2021/12/01 01:31:57;;;;;;;1.53;0.80;;;5.40;99.90;;;;;;4978366;28;20375;-85
2021/12/01 01:34:24;;;;;;;6.10;1.10;;;5.40;99.90;;;;;;4995796;28;20017;-86
2021/12/01 01:36:51;;;;;;;1.77;0.90;;;5.40;99.90;;;;;;4996897;28;20367;-83
2021/12/01 01:39:17;;;;;;;2.00;1.07;;;5.40;99.90;;;;;;5014050;28;20037;-83
2021/12/01 01:41:43;;;;;;;1.77;1.00;;;5.40;99.90;;;;;;4996344;28;20032;-80
2021/12/01 01:44:09;;;;;;;2.37;1.10;;;5.40;99.90;;;;;;5013540;28;20038;-80
2021/12/01 01:46:36;;;;;;;3.70;1.23;;;5.40;99.90;;;;;;5011673;28;20390;-82
2021/12/01 01:49:16;;;;;;;2.30;0.93;;;5.40;99.90;;;;;;5033359;28;20020;-81
2021/12/01 01:51:42;;;;;;;1.00;0.60;;;5.40;99.90;;;;;;5033454;28;20017;-82
2021/12/01 01:54:09;;;;;;;1.20;0.90;;;5.40;99.90;;;;;;5015420;28;20033;-81
2021/12/01 01:56:35;;;;;;;1.67;0.73;;;5.40;99.90;;;;;;5003692;28;20049;-80
2021/12/01 01:59:02;;;;;;;2.20;0.87;;;5.50;99.90;;;;;;5026288;28;20056;-81
2021/12/01 02:04:17;;;;;;;2.13;0.90;;;5.50;99.90;;;;;;5033534;28;20025;-82
2021/12/01 02:06:46;;;;;;;1.43;0.80;;;5.50;99.90;;;;;;5008047;28;20018;-81
2021/12/01 02:09:12;;;;;;;3.30;0.77;;;5.50;99.90;;;;;;5007605;28;20030;-83
2021/12/01 02:11:38;;;;;;;1.10;0.70;;;5.50;99.90;;;;;;5000776;28;20079;-83
2021/12/01 02:14:05;;;;;;;2.00;0.90;;;5.60;99.90;;;;;;4996640;28;20026;-84
2021/12/01 02:16:31;;;;;;;1.50;0.77;;;5.50;99.90;;;;;;5006748;28;20021;-83
2021/12/01 02:18:57;;;;;;;1.67;0.67;;;5.60;99.90;;;;;;5004748;28;20466;-80
2021/12/01 02:21:27;;;;;;;2.77;0.73;;;5.60;99.90;;;;;;5000786;28;20026;-82
2021/12/01 02:23:58;;;;;;;2.43;0.80;;;5.60;99.90;;;;;;5015893;28;20529;-84
2021/12/01 02:26:25;;;;;;;2.13;0.73;;;5.60;99.90;;;;;;5015396;28;20017;-88
2021/12/01 02:28:55;;;;;;;1.10;0.60;;;5.70;99.90;;;;;;5015874;28;20072;-81
2021/12/01 02:31:25;;;;;;;2.33;0.83;;;5.70;99.90;;;;;;5021002;28;20036;-83
2021/12/01 02:33:51;;;;;;;1.10;0.70;;;5.70;99.90;;;;;;5015903;28;20477;-84
2021/12/01 02:36:17;;;;;;;1.57;0.70;;;5.70;99.90;;;;;;5015694;28;20032;-88
2021/12/01 02:38:45;;;;;;;1.57;0.57;;;5.80;99.90;;;;;;5015291;28;20021;-86
2021/12/01 02:41:11;;;;;;;1.20;0.70;;;5.80;99.90;;;;;;5015998;28;20409;-87
2021/12/01 02:43:38;;;;;;;1.10;0.60;;;5.80;99.90;;;;;;5015503;28;20029;-85
2021/12/01 02:46:05;;;;;;;1.43;0.70;;;5.90;99.90;;;;;;5014116;28;20049;-83
2021/12/01 02:48:31;;;;;;;0.97;0.70;;;5.80;99.90;;;;;;4999268;28;20454;-87
2021/12/01 02:50:58;;;;;;;1.73;0.90;;;5.90;99.90;;;;;;5017224;28;20026;-88
2021/12/01 02:53:24;;;;;;;2.00;0.60;;;5.80;99.90;;;;;;5016861;28;20025;-86
2021/12/01 02:56:00;;;;;;;1.33;0.50;;;5.90;99.90;;;;;;5016961;28;20037;-89
2021/12/01 02:58:28;;;;;;;2.73;0.73;;;5.90;99.90;;;;;;4999605;28;20022;-83
2021/12/01 03:00:56;;;;;;;1.03;0.60;;;5.90;99.90;;;;;;5008795;28;20021;-82
2021/12/01 03:03:22;;;;;;;1.63;0.83;;;5.90;99.90;;;;;;4999607;28;20026;-81
2021/12/01 03:05:50;;;;;;;2.30;0.70;;;6.00;99.90;;;;;;4999771;28;20025;-84
2021/12/01 03:08:18;;;;;;;1.63;0.50;;;6.00;99.90;;;;;;4983732;28;20025;-87
2021/12/01 03:10:49;;;;;;;0.93;0.50;;;6.00;99.90;;;;;;5016626;28;20022;-88
2021/12/01 03:13:16;;;;;;;2.03;0.65;;;6.00;99.90;;;;;;5015898;28;20061;-89
2021/12/01 03:15:42;;;;;;;0.70;0.40;;;6.00;99.90;;;;;;4998606;28;20620;-82
2021/12/01 03:18:09;;;;;;;1.60;0.50;;;6.10;99.90;;;;;;4999170;28;20034;-85
2021/12/01 03:20:35;;;;;;;2.00;0.70;;;6.10;99.90;;;;;;4998949;28;20475;-87
2021/12/01 03:23:00;;;;;;;1.17;0.70;;;6.10;99.90;;;;;;4999514;28;20018;-90
2021/12/01 03:25:27;;;;;;;0.73;0.50;;;6.10;99.90;;;;;;4999053;28;20185;-91
2021/12/01 03:27:53;;;;;;;1.90;0.60;;;6.10;99.90;;;;;;4999480;28;20026;-88
2021/12/01 03:30:19;;;;;;;2.40;0.50;;;6.10;99.90;;;;;;4999761;28;20033;-94
2021/12/01 03:32:45;;;;;;;0.97;0.50;;;6.10;99.90;;;;;;5016521;28;20030;-88
2021/12/01 03:35:13;;;;;;;1.00;0.60;;;6.20;99.90;;;;;;4999093;28;20029;-83
2021/12/01 03:37:41;;;;;;;0.83;0.50;;;6.10;99.90;;;;;;4998990;28;20026;-84
2021/12/01 03:40:09;;;;;;;1.53;0.77;;;6.20;99.90;;;;;;5016622;28;20062;-85
2021/12/01 03:42:34;;;;;;;1.50;0.50;;;6.10;99.90;;;;;;4998388;28;20022;-84
2021/12/01 03:45:01;;;;;;;3.87;0.80;;;6.20;99.90;;;;;;5012533;28;20495;-86
2021/12/01 03:47:27;;;;;;;1.00;0.47;;;6.20;99.90;;;;;;5002647;28;20031;-89
2021/12/01 03:49:53;;;;;;;1.30;0.63;;;6.20;99.90;;;;;;4987218;28;20035;-85
2021/12/01 03:52:19;;;;;;;1.33;0.60;;;6.20;99.90;;;;;;4991774;28;20026;-88
2021/12/01 03:54:46;;;;;;;1.33;0.60;;;6.20;99.90;;;;;;4996313;28;20110;-87
2021/12/01 03:57:12;;;;;;;1.30;0.80;;;6.20;99.90;;;;;;4986713;28;20026;-89
2021/12/01 03:59:38;;;;;;;1.70;0.70;;;6.20;99.90;;;;;;4995769;28;20034;-88
2021/12/01 04:02:04;;;;;;;2.90;0.60;;;6.30;99.90;;;;;;4996651;28;20391;-84
2021/12/01 04:04:30;;;;;;;0.73;0.50;;;6.30;99.90;;;;;;4997652;28;20030;-83
2021/12/01 04:06:56;;;;;;;1.30;0.53;;;6.40;99.90;;;;;;5008649;28;20093;-84
2021/12/01 04:09:22;;;;;;;0.60;0.40;;;6.40;99.90;;;;;;4983110;28;20511;-79
2021/12/01 04:11:47;;;;;;;0.97;0.40;;;6.40;99.90;;;;;;5015603;28;20049;-85
2021/12/01 04:14:13;;;;;;;1.07;0.43;;;6.50;99.90;;;;;;4997698;28;20038;-85
2021/12/01 04:16:39;;;;;;;0.97;0.40;;;6.50;99.90;;;;;;5015081;28;20018;-84
2021/12/01 04:19:05;;;;;;;1.37;0.57;;;6.60;99.90;;;;;;5015741;28;20018;-85
2021/12/01 04:21:31;;;;;;;1.30;0.50;;;6.60;99.90;;;;;;4997986;28;20052;-83
2021/12/01 04:23:56;;;;;;;1.00;0.50;;;6.60;99.90;;;;;;4998479;28;20030;-88
2021/12/01 04:26:28;;;;;;;0.60;0.33;;;6.60;99.90;;;;;;4990047;28;20023;-79
2021/12/01 04:28:55;;;;;;;0.50;0.20;;;6.60;99.90;;;;;;4981624;28;20103;-83
2021/12/01 04:31:21;;;;;;;0.80;0.30;;;6.70;99.90;;;;;;5014679;28;20244;-84
2021/12/01 04:33:47;;;;;;;0.53;0.30;;;6.70;99.90;;;;;;4997264;28;20033;-85
2021/12/01 04:36:15;;;;;;;2.33;0.40;;;6.80;99.90;;;;;;5011908;28;20027;-85
2021/12/01 04:38:41;;;;;;;1.60;0.40;;;6.80;99.90;;;;;;4978102;28;20026;-90
2021/12/01 04:41:08;;;;;;;0.67;0.33;;;6.70;99.90;;;;;;4998348;28;20037;-83
2021/12/01 04:43:35;;;;;;;1.20;0.50;;;6.80;99.90;;;;;;4997443;28;20093;-86
2021/12/01 04:46:01;;;;;;;1.17;0.30;;;6.80;99.90;;;;;;5009242;28;20445;-85
2021/12/01 04:48:27;;;;;;;1.40;0.30;;;6.80;99.90;;;;;;5034469;28;20048;-79
2021/12/01 04:50:53;;;;;;;2.67;0.40;;;6.80;99.90;;;;;;5016637;28;20363;-82
2021/12/01 04:53:20;;;;;;;0.60;0.30;;;6.90;99.90;;;;;;5016592;28;20025;-82
2021/12/01 04:55:46;;;;;;;0.30;0.23;;;6.90;99.90;;;;;;5016632;28;20028;-84
2021/12/01 04:58:12;;;;;;;0.50;0.30;;;6.90;99.90;;;;;;5008668;28;20042;-83
2021/12/01 05:00:37;;;;;;;0.77;0.30;;;6.90;99.90;;;;;;5007066;28;20025;-85
2021/12/01 05:03:04;;;;;;;1.03;0.30;;;6.90;99.90;;;;;;5017006;28;20090;-83
2021/12/01 05:05:30;;;;;;;1.00;0.40;;;6.90;99.90;;;;;;5034243;28;20030;-84
2021/12/01 05:07:56;;;;;;;0.57;0.30;;;6.90;99.90;;;;;;5017223;28;20028;-86
2021/12/01 05:10:22;;;;;;;0.60;0.20;;;6.90;99.90;;;;;;5017357;28;20051;-89
2021/12/01 05:12:48;;;;;;;1.00;0.40;;;7.00;99.90;;;;;;5017569;28;20028;-90
2021/12/01 05:15:13;;;;;;;0.53;0.20;;;6.90;99.90;;;;;;5016888;28;20037;-91
2021/12/01 05:17:39;;;;;;;0.57;0.27;;;6.90;99.90;;;;;;5023622;28;20026;-90
2021/12/01 05:20:07;;;;;;;0.30;0.23;;;6.90;99.90;;;;;;5007310;28;20028;-86
2021/12/01 05:22:33;;;;;;;1.03;0.30;;;7.00;99.90;;;;;;5014824;28;20026;-88
2021/12/01 05:24:59;;;;;;;2.00;0.30;;;7.00;99.90;;;;;;5019124;28;20037;-91
2021/12/01 05:27:24;;;;;;;0.30;0.20;;;7.00;99.90;;;;;;4997123;28;20029;-83
2021/12/01 05:29:50;;;;;;;0.40;0.20;;;7.00;99.90;;;;;;5007004;28;20112;-90
2021/12/01 05:32:17;;;;;;;2.03;0.30;;;6.90;99.90;;;;;;5014188;28;20026;-90
2021/12/01 05:34:43;;;;;;;0.90;0.30;;;7.00;99.90;;;;;;5016860;28;20072;-90
2021/12/01 05:37:08;;;;;;;0.37;0.30;;;7.00;99.90;;;;;;5016945;28;20029;-91
2021/12/01 05:39:34;;;;;;;1.23;0.20;;;7.10;99.90;;;;;;5006859;28;20025;-90
2021/12/01 05:42:00;;;;;;;1.00;0.30;;;7.00;99.90;;;;;;5027366;28;20033;-91
2021/12/01 05:44:27;;;;;;;0.50;0.20;;;7.00;99.90;;;;;;5016329;28;20374;-88
2021/12/01 05:46:52;;;;;;;0.30;0.20;;;7.10;99.90;;;;;;5016603;28;20488;-91
2021/12/01 05:49:18;;;;;;;3.30;0.30;;;7.10;99.90;;;;;;5033985;28;20018;-91
2021/12/01 05:51:44;;;;;;;0.50;0.30;;;7.20;99.90;;;;;;5015932;28;20017;-90
2021/12/01 05:54:11;;;;;;;0.47;0.20;;;7.20;99.90;;;;;;5016551;28;20025;-91
2021/12/01 05:56:37;;;;;;;0.30;0.10;;;7.20;99.90;;;;;;5033506;28;20419;-89
2021/12/01 05:59:02;;;;;;;2.13;0.20;;;7.20;99.90;;;;;;5015384;28;20045;-91
2021/12/01 06:01:28;;;;;;;0.30;0.20;;;7.20;99.90;;;;;;5033163;28;20087;-89
2021/12/01 06:03:54;;;;;;;0.47;0.20;;;7.20;99.90;;;;;;5034424;28;20509;-93
2021/12/01 06:06:19;;;;;;;0.80;0.20;;;7.30;99.90;;;;;;5016290;28;20527;-93
2021/12/01 06:08:45;;;;;;;1.03;0.20;;;7.20;99.90;;;;;;5015051;28;20024;-92
2021/12/01 06:11:11;;;;;;;1.00;0.17;;;7.30;99.90;;;;;;5016171;28;20053;-87
2021/12/01 06:13:37;;;;;;;0.10;0.10;;;7.30;99.90;;;;;;5007896;28;20018;-92
2021/12/01 06:16:03;;;;;;;0.30;0.10;;;7.30;99.90;;;;;;5002706;28;20128;-88
2021/12/01 06:18:30;;;;;;;1.20;0.30;;;7.30;99.90;;;;;;5012904;28;20083;-91
2021/12/01 06:20:57;;;;;;;0.90;0.40;;;7.30;99.90;;;;;;5033582;28;20014;-91
2021/12/01 06:23:23;;;;;;;0.40;0.20;;;7.40;99.90;;;;;;5007734;28;20017;-91
2021/12/01 06:25:49;;;;;;;0.40;0.20;;;7.40;99.90;;;;;;5022268;28;20037;-92
2021/12/01 06:28:15;;;;;;;0.17;0.10;;;7.40;99.90;;;;;;5040339;28;20017;-92
2021/12/01 06:30:41;;;;;;;0.40;0.40;;;7.40;99.90;;;;;;5022190;28;20022;-91
2021/12/01 06:33:07;;;;;;;0.47;0.13;;;7.40;99.90;;;;;;5022628;28;20017;-92
2021/12/01 06:35:34;;;;;;;0.20;0.10;;;7.50;99.90;;;;;;5022194;28;20027;-86
2021/12/01 06:38:00;;;;;;;1.60;0.20;;;7.50;99.90;;;;;;5017541;28;20072;-87
2021/12/01 06:40:26;;;;;;;0.97;0.13;;;7.50;99.90;;;;;;5020493;28;20033;-87
2021/12/01 06:42:51;;;;;;;1.13;0.37;;;7.50;99.90;;;;;;5002957;28;20022;-87
2021/12/01 06:45:17;;;;;;;1.80;0.40;;;7.50;99.90;;;;;;4997184;28;20053;-87
2021/12/01 06:47:43;;;;;;;0.57;0.10;;;7.50;99.90;;;;;;4983575;28;20103;-93
2021/12/01 06:50:10;;;;;;;0.53;0.20;;;7.60;99.90;;;;;;4983777;28;20022;-93
2021/12/01 06:52:38;;;;;;;0.53;0.20;;;7.50;99.90;;;;;;4983105;28;20041;-93
2021/12/01 06:55:05;;;;;;;1.30;0.30;;;7.60;99.90;;;;;;4983681;28;20094;-92
2021/12/01 06:57:31;;;;;;;1.73;0.20;;;7.60;99.90;;;;;;4982868;28;20038;-93
2021/12/01 06:59:58;;;;;;;1.70;0.30;;;7.60;99.90;;;;;;4983527;28;20451;-93
2021/12/01 07:02:24;;;;;;;0.50;0.20;;;7.60;99.90;;;;;;4983405;28;20033;-92
2021/12/01 07:04:50;;;;;;;1.37;0.10;;;7.60;99.90;;;;;;4984748;28;20121;-92
2021/12/01 07:07:15;;;;;;;0.20;0.10;;;7.60;99.90;;;;;;4984925;28;20047;-92
2021/12/01 07:09:45;;;;;;;0.87;0.10;;;7.60;99.90;;;;;;4983100;28;20073;-91
2021/12/01 07:12:11;;;;;;;1.53;0.10;;;7.60;99.90;;;;;;4991358;28;20470;-90
2021/12/01 07:14:37;;;;;;;0.50;0.20;;;7.60;99.90;;;;;;4985085;28;20311;-89
2021/12/01 07:17:03;;;;;;;1.90;0.20;;;7.60;99.90;;;;;;5009218;28;20448;-90
2021/12/01 07:19:28;;;;;;;0.40;0.10;;;7.60;99.90;;;;;;4983348;28;20518;-80
2021/12/01 07:21:54;;;;;;;0.63;0.20;;;7.60;99.90;;;;;;4996889;28;20069;-89
2021/12/01 07:24:20;;;;;;;1.07;0.20;;;7.60;99.90;;;;;;5001327;28;20034;-89
2021/12/01 07:26:46;;;;;;;0.53;0.30;;;7.60;99.90;;;;;;4995503;28;20018;-93
2021/12/01 07:29:12;;;;;;;0.60;0.23;;;7.70;99.90;;;;;;5006789;28;20027;-89
2021/12/01 07:31:38;;;;;;;0.40;0.20;;;7.70;99.90;;;;;;4977907;28;20384;-89
2021/12/01 07:34:03;;;;;;;0.50;0.27;;;7.70;99.90;;;;;;4994859;28;20060;-93
2021/12/01 07:36:29;;;;;;;0.83;0.20;;;7.80;99.90;;;;;;5004570;28;20037;-80
2021/12/01 07:38:56;;;;;;;0.57;0.23;;;7.80;99.90;;;;;;5002988;28;20025;-86
2021/12/01 07:41:22;;;;;;;2.13;0.33;;;7.80;99.90;;;;;;4996166;28;20095;-87
2021/12/01 07:43:48;;;;;;;0.60;0.20;;;7.80;99.90;;;;;;4991124;28;20476;-84
2021/12/01 07:46:14;;;;;;;0.40;0.20;;;7.80;99.90;;;;;;5002634;28;20065;-87
2021/12/01 07:48:39;;;;;;;0.75;0.20;;;7.80;99.90;;;;;;5013022;28;20029;-87
2021/12/01 07:51:05;;;;;;;0.27;0.20;;;7.90;99.90;;;;;;4989027;28;20392;-86
2021/12/01 07:53:31;;;;;;;0.85;0.20;;;7.80;99.90;;;;;;4995882;28;20026;-86
2021/12/01 07:55:57;;;;;;;0.57;0.20;;;7.90;99.90;;;;;;4986710;28;20054;-85
2021/12/01 07:58:23;;;;;;;0.60;0.30;;;7.90;99.90;;;;;;5013716;28;20029;-86
2021/12/01 08:00:49;;;;;;;0.20;0.17;;;7.90;99.90;;;;;;4995735;28;20030;-85
2021/12/01 08:03:14;;;;;;;0.95;0.20;;;7.90;99.70;;;;;;4996288;28;20032;-86
2021/12/01 08:05:40;;;;;;;0.50;0.20;;;8.00;99.70;;;;;;4995375;28;20034;-86
2021/12/01 08:08:07;;;;;;;0.20;0.10;;;8.00;99.60;;;;;;4995877;28;20022;-85
2021/12/01 08:10:33;;;;;;;0.20;0.10;;;8.10;99.90;;;;;;4994314;28;20030;-84
2021/12/01 08:13:00;;;;;;;0.20;0.17;;;8.10;99.90;;;;;;5013111;28;20455;-86
2021/12/01 08:15:26;;;;;;;1.27;0.20;;;8.10;99.90;;;;;;5014827;28;20031;-92
2021/12/01 08:17:52;;;;;;;1.45;0.20;;;8.10;99.90;;;;;;4992364;28;20112;-92
2021/12/01 08:20:19;;;;;;;0.47;0.17;;;8.10;99.90;;;;;;5011602;28;20458;-93
2021/12/01 08:22:45;;;;;;;0.68;0.10;;;8.10;99.90;;;;;;4993861;28;20060;-93
2021/12/01 08:25:10;;;;;;;0.50;0.30;;;8.20;99.90;;;;;;4995784;28;20026;-87
2021/12/01 08:27:36;;;;;;;0.15;0.10;;;8.20;99.90;;;;;;5012449;28;20028;-84
2021/12/01 08:30:03;;;;;;;0.40;0.10;;;8.20;99.90;;;;;;5011520;28;20057;-87
2021/12/01 08:32:28;;;;;;;0.98;0.10;;;8.20;99.90;;;;;;5012312;28;20050;-88
2021/12/01 08:34:54;;;;;;;0.28;0.10;;;8.10;99.90;;;;;;4993122;28;20061;-87
2021/12/01 08:37:21;;;;;;;0.17;0.10;;;8.20;99.90;;;;;;5010851;28;20427;-88
2021/12/01 08:39:48;;;;;;;1.23;0.10;;;8.10;99.90;;;;;;4993640;28;20026;-87
2021/12/01 08:42:20;;;;;;;0.32;0.10;;;8.20;99.90;;;;;;5002757;28;20086;-87
2021/12/01 08:44:46;;;;;;;4.10;0.20;;;8.20;99.90;;;;;;4981438;28;20044;-88
2021/12/01 08:47:13;;;;;;;0.28;0.15;;;8.20;99.90;;;;;;5027612;28;20036;-88
2021/12/01 08:49:39;;;;;;;0.80;0.03;;;8.20;99.90;;;;;;5023105;28;20036;-86
2021/12/01 08:52:05;;;;;;;0.43;0.20;;;8.30;99.90;;;;;;5004019;28;20596;-87
2021/12/01 08:54:31;;;;;;;0.50;0.10;;;8.30;99.90;;;;;;5009443;28;20486;-86
2021/12/01 08:56:57;;;;;;;1.77;0.10;;;8.30;99.70;;;;;;5001366;28;20037;-89
2021/12/01 08:59:23;;;;;;;0.52;0.00;;;8.40;99.70;;;;;;5004686;28;20075;-90
2021/12/01 09:01:49;;;;;;;0.30;0.10;;;8.40;99.60;;;;;;5008007;28;20026;-92
2021/12/01 09:04:15;;;;;;;0.13;0.10;;;8.40;99.40;;;;;;5004525;28;20041;-93
2021/12/01 09:06:41;;;;;;;0.90;0.15;;;8.50;99.30;;;;;;5031544;28;20033;-85
2021/12/01 09:09:07;;;;;;;0.10;0.00;;;8.50;99.00;;;;;;5014723;28;20034;-84
2021/12/01 09:11:33;;;;;;;0.10;0.00;;;8.50;98.80;;;;;;5004965;28;20060;-80
2021/12/01 09:13:59;;;;;;;0.77;0.10;;;8.60;98.70;;;;;;5011409;28;20057;-83
2021/12/01 09:16:25;;;;;;;0.20;0.08;;;8.60;98.40;;;;;;5029560;28;20030;-86
2021/12/01 09:18:51;;;;;;;0.52;0.10;;;8.70;98.30;;;;;;5013507;28;20387;-85
2021/12/01 09:21:18;;;;;;;0.35;0.10;;;8.70;98.50;;;;;;5029804;28;20060;-84
2021/12/01 09:23:45;;;;;;;0.10;0.00;;;8.70;98.20;;;;;;5011277;28;20025;-85
2021/12/01 09:26:11;;;;;;;0.20;0.03;;;8.70;97.90;;;;;;5013114;28;20029;-84
2021/12/01 09:28:36;;;;;;;0.50;0.20;;;8.80;98.00;;;;;;5008130;28;20030;-85
2021/12/01 09:31:02;;;;;;;0.98;0.20;;;8.80;97.80;;;;;;5011886;28;20517;-84
2021/12/01 09:33:29;;;;;;;2.30;1.30;;;8.90;97.90;;;;;;4990676;28;20072;-84
2021/12/01 09:35:55;;;;;;;1.23;0.88;;;8.90;97.70;;;;;;5010140;28;20042;-84
2021/12/01 09:38:21;;;;;;;0.32;0.28;;;8.90;97.60;;;;;;5010167;28;20196;-83
2021/12/01 09:40:54;;;;;;;0.50;0.50;;;9.00;97.70;;;;;;5017371;28;20343;-84
2021/12/01 09:43:25;;;;;;;0.20;0.13;;;9.00;97.70;;;;;;5002503;28;20037;-84
2021/12/01 09:45:51;;;;;;;0.32;0.10;;;9.00;97.30;;;;;;5010391;28;20060;-83
2021/12/01 09:48:18;;;;;;;0.68;0.38;;;9.00;97.60;;;;;;5010942;28;20050;-84
2021/12/01 09:50:44;;;;;;;0.25;0.10;;;9.00;97.50;;;;;;4993193;28;20479;-83
2021/12/01 09:53:10;;;;;;;0.32;0.20;;;9.10;97.50;;;;;;5023889;28;20471;-85
2021/12/01 09:55:36;;;;;;;0.43;0.20;;;9.00;97.60;;;;;;4995811;28;20045;-84
2021/12/01 09:58:11;;;;;;;0.28;0.10;;;9.00;97.60;;;;;;4996347;28;20022;-84
2021/12/01 10:00:40;;;;;;;0.38;0.20;;;9.10;97.90;;;;;;5004562;28;20120;-85
2021/12/01 10:03:06;;;;;;;0.10;0.10;;;9.00;98.30;;;;;;5007746;28;20053;-84
2021/12/01 10:06:04;;;;;;;0.35;0.10;;;9.10;98.30;;;;;;5009900;28;20065;-83
2021/12/01 10:08:35;;;;;;;0.30;0.10;;;9.10;98.30;;;;;;4997538;28;20030;-84
2021/12/01 10:11:24;;;;;;;1.25;0.20;;;9.10;98.90;;;;;;4993512;28;20034;-85
2021/12/01 10:13:59;;;;;;;0.55;0.20;;;9.00;99.90;;;;;;5008549;28;20029;-85
2021/12/01 10:16:28;;;;;;;0.80;0.10;;;9.00;99.90;;;;;;5000157;28;20076;-83
2021/12/01 10:18:57;;;;;;;0.35;0.10;;;9.00;99.90;;;;;;5012151;28;20053;-85
2021/12/01 10:21:28;;;;;;;0.45;0.10;;;9.00;99.90;;;;;;4999411;28;20030;-85
2021/12/01 10:24:09;;;;;;;0.80;0.40;;;9.00;99.90;;;;;;5011577;28;20032;-86
2021/12/01 10:26:52;;;;;;;1.20;0.20;;;8.90;99.90;;;;;;5006360;28;20034;-84
2021/12/01 10:29:24;;;;;;;0.43;0.20;;;8.90;99.90;;;;;;5006476;28;20037;-86
2021/12/01 10:31:54;;;;;;;0.10;0.10;;;8.90;99.90;;;;;;5005041;28;20032;-84
2021/12/01 10:34:35;;;;;;;0.15;0.10;;;8.90;99.90;;;;;;5009377;28;20403;-86
2021/12/01 10:37:14;;;;;;;0.38;0.20;;;8.90;99.90;;;;;;5001510;28;20117;-88
2021/12/01 10:39:43;;;;;;;1.00;0.17;;;8.90;99.90;;;;;;5026466;28;20493;-86
2021/12/01 10:42:12;;;;;;;1.27;0.20;;;8.90;99.90;;;;;;4993423;28;20030;-86
2021/12/01 10:45:00;;;;;;;0.20;0.10;;;9.00;99.90;;;;;;5004117;28;20402;-85
2021/12/01 10:47:40;;;;;;;2.00;0.22;;;9.00;99.90;;;;;;5007110;28;20080;-86
2021/12/01 10:50:07;;;;;;;0.55;0.20;;;9.10;99.90;;;;;;5012569;28;20028;-90
2021/12/01 10:52:38;;;;;;;0.13;0.10;;;9.00;99.90;;;;;;5022964;28;20029;-88
2021/12/01 10:55:17;;;;;;;1.27;0.10;;;9.10;99.90;;;;;;4998591;28;20041;-88
2021/12/01 10:57:54;;;;;;;0.22;0.10;;;9.10;99.90;;;;;;4995789;28;20656;-87
2021/12/01 11:00:26;;;;;;;0.17;0.17;;;9.00;99.90;;;;;;5023413;28;20022;-86
2021/12/01 11:02:53;;;;;;;0.22;0.10;;;9.00;99.90;;;;;;5021840;28;20053;-85
2021/12/01 11:05:27;;;;;;;1.75;0.10;;;9.00;99.90;;;;;;5029377;28;20060;-86
2021/12/01 11:07:53;;;;;;;0.30;0.15;;;8.90;99.90;;;;;;5009494;28;20038;-85
2021/12/01 11:10:22;;;;;;;1.10;0.30;;;8.90;99.90;;;;;;5027044;28;20546;-85
2021/12/01 11:12:57;;;;;;;0.43;0.20;;;8.90;99.90;;;;;;5005297;28;20029;-85
2021/12/01 11:15:29;;;;;;;0.55;0.38;;;8.90;99.90;;;;;;5003812;28;20038;-85
2021/12/01 11:17:55;;;;;;;0.32;0.15;;;8.80;99.90;;;;;;4997483;28;20068;-84
2021/12/01 11:20:52;;;;;;;0.13;0.10;;;8.80;99.90;;;;;;5002402;28;20037;-85
2021/12/01 11:23:23;;;;;;;0.40;0.10;;;8.90;99.90;;;;;;4997929;28;20048;-84
2021/12/01 11:25:53;;;;;;;0.40;0.10;;;8.90;99.90;;;;;;5013009;28;20033;-84
2021/12/01 11:28:20;;;;;;;1.13;0.10;;;8.80;99.90;;;;;;5002951;28;20083;-86
2021/12/01 11:30:49;;;;;;;0.63;0.10;;;8.90;99.90;;;;;;5002886;28;20037;-83
2021/12/01 11:33:18;;;;;;;0.32;0.10;;;8.90;99.90;;;;;;5026306;28;20478;-84
2021/12/01 11:35:46;;;;;;;1.23;0.30;;;8.90;99.90;;;;;;5013962;28;20041;-84
2021/12/01 11:38:13;;;;;;;0.70;0.20;;;8.90;99.90;;;;;;5001354;28;20029;-86
2021/12/01 11:40:39;;;;;;;2.45;0.10;;;8.90;99.90;;;;;;5006711;28;20026;-83
2021/12/01 11:43:08;;;;;;;0.40;0.20;;;8.90;99.90;;;;;;5025310;28;20032;-86
2021/12/01 11:45:36;;;;;;;0.30;0.20;;;9.00;99.90;;;;;;5016873;28;20049;-87
2021/12/01 11:48:03;;;;;;;0.52;0.10;;;9.00;99.90;;;;;;5010308;28;20112;-88
2021/12/01 11:50:35;;;;;;;3.13;0.32;;;9.00;99.90;;;;;;5015348;28;20069;-86
2021/12/01 11:53:21;;;;;;;0.95;0.30;;;9.00;99.90;;;;;;5011341;28;20518;-85
2021/12/01 11:55:51;;;;;;;0.20;0.10;;;9.00;99.90;;;;;;5030725;28;20107;-85
2021/12/01 11:58:52;;;;;;;0.45;0.35;;;9.00;99.90;;;;;;5015385;28;20033;-84
2021/12/01 12:01:21;;;;;;;0.52;0.20;;;9.10;99.90;;;;;;5011853;28;20041;-84
2021/12/01 12:04:01;;;;;;;0.40;0.13;;;9.10;99.90;;;;;;5028881;28;20064;-87
2021/12/01 12:06:29;;;;;;;0.47;0.17;;;9.20;99.90;;;;;;5002296;28;20033;-84
2021/12/01 12:09:07;;;;;;;0.75;0.20;;;9.20;99.90;;;;;;5014423;28;20029;-84
2021/12/01 12:11:59;;;;;;;1.75;0.35;;;9.20;99.90;;;;;;5011675;28;20088;-84
2021/12/01 12:14:28;;;;;;;1.35;0.17;;;9.30;99.90;;;;;;5004717;28;20042;-84
2021/12/01 12:17:01;;;;;;;0.55;0.10;;;9.30;99.90;;;;;;5021323;28;20121;-84
2021/12/01 12:19:51;;;;;;;0.40;0.20;;;9.30;99.90;;;;;;4999906;28;20048;-85
2021/12/01 12:22:27;;;;;;;0.45;0.10;;;9.30;99.90;;;;;;5018303;28;20026;-84
2021/12/01 12:24:54;;;;;;;1.00;0.20;;;9.30;99.90;;;;;;5003351;28;20148;-85
2021/12/01 12:27:29;;;;;;;0.32;0.20;;;9.30;99.90;;;;;;5009176;28;20035;-85
2021/12/01 12:29:57;;;;;;;1.05;0.60;;;9.30;99.90;;;;;;5015210;28;20038;-84
2021/12/01 12:32:24;;;;;;;0.50;0.28;;;9.30;99.90;;;;;;5005731;28;20088;-86
2021/12/01 12:34:52;;;;;;;0.35;0.35;;;9.30;99.90;;;;;;5003858;28;20404;-87
2021/12/01 12:37:26;;;;;;;0.75;0.30;;;9.30;99.90;;;;;;5000518;28;20049;-86
2021/12/01 12:39:53;;;;;;;0.30;0.20;;;9.30;99.90;;;;;;5001458;28;20146;-86
2021/12/01 12:42:19;;;;;;;0.43;0.20;;;9.20;99.90;;;;;;5014545;28;20041;-85
2021/12/01 12:44:50;;;;;;;0.40;0.25;;;9.20;99.90;;;;;;5002845;28;20419;-84
2021/12/01 12:47:22;;;;;;;0.55;0.20;;;9.20;99.90;;;;;;5000893;28;20061;-90
2021/12/01 12:50:12;;;;;;;1.33;0.20;;;9.20;99.90;;;;;;5022601;28;20032;-84
2021/12/01 12:52:44;;;;;;;1.35;0.10;;;9.20;99.90;;;;;;5014443;28;20057;-84
2021/12/01 12:55:15;;;;;;;0.32;0.17;;;9.20;99.90;;;;;;5001662;28;20033;-86
2021/12/01 12:58:00;;;;;;;0.85;0.20;;;9.20;99.90;;;;;;5010879;28;20034;-86
2021/12/01 13:00:46;;;;;;;1.15;0.20;;;9.20;99.90;;;;;;5025176;28;20527;-85
2021/12/01 13:03:19;;;;;;;0.22;0.10;;;9.20;99.90;;;;;;5009394;28;20076;-85
2021/12/01 13:05:45;;;;;;;0.85;0.20;;;9.20;99.90;;;;;;5029477;28;20037;-85
2021/12/01 13:08:42;;;;;;;0.40;0.20;;;9.20;99.90;;;;;;4998696;28;20377;-86
2021/12/01 13:11:14;;;;;;;0.20;0.13;;;9.10;99.90;;;;;;5014999;28;20540;-85